sensor_id;sensor_type;location;lat;lon;timestamp;pressure;altitude;pressure_sealevel;temperature;humidity
50133;BME280;46340;53.148;8.204;2022-07-11T00:01:36;102221.31;;;13.05;100.00
50133;BME280;46340;53.148;8.204;2022-07-11T00:04:02;102221.31;;;13.05;100.00
50133;BME280;46340;53.148;8.204;2022-07-11T00:06:27;102227.66;;;13.06;100.00
50133;BME280;46340;53.148;8.204;2022-07-11T00:08:53;102226.22;;;13.08;100.00
50133;BME280;46340;53.148;8.204;2022-07-11T00:11:18;102226.22;;;13.08;100.00
50133;BME280;46340;53.148;8.204;2022-07-11T00:13:43;102216.09;;;13.12;100.00
50133;BME280;46340;53.148;8.204;2022-07-11T00:16:09;102224.72;;;13.11;100.00
50133;BME280;46340;53.148;8.204;2022-07-11T00:18:34;102225.53;;;13.11;100.00
50133;BME280;46340;53.148;8.204;2022-07-11T00:20:59;102221.63;;;13.12;100.00
50133;BME280;46340;53.148;8.204;2022-07-11T00:23:25;102231.44;;;13.10;100.00
50133;BME280;46340;53.148;8.204;2022-07-11T00:25:50;102219.03;;;13.07;100.00
50133;BME280;46340;53.148;8.204;2022-07-11T00:28:15;102219.34;;;13.06;100.00
50133;BME280;46340;53.148;8.204;2022-07-11T00:30:41;102217.06;;;13.08;100.00
50133;BME280;46340;53.148;8.204;2022-07-11T00:33:06;102218.22;;;13.07;100.00
50133;BME280;46340;53.148;8.204;2022-07-11T00:35:31;102220.81;;;13.03;100.00
50133;BME280;46340;53.148;8.204;2022-07-11T00:37:57;102212.19;;;13.05;100.00
50133;BME280;46340;53.148;8.204;2022-07-11T00:40:22;102218.88;;;13.04;100.00
50133;BME280;46340;53.148;8.204;2022-07-11T00:42:48;102210.38;;;13.00;100.00
50133;BME280;46340;53.148;8.204;2022-07-11T00:45:13;102214.13;;;12.95;100.00
50133;BME280;46340;53.148;8.204;2022-07-11T00:47:38;102216.41;;;12.93;100.00
50133;BME280;46340;53.148;8.204;2022-07-11T00:50:04;102219.19;;;12.93;100.00
50133;BME280;46340;53.148;8.204;2022-07-11T00:52:30;102219.19;;;12.93;100.00
50133;BME280;46340;53.148;8.204;2022-07-11T00:54:55;102213.47;;;12.90;100.00
50133;BME280;46340;53.148;8.204;2022-07-11T00:57:21;102206.31;;;12.89;100.00
50133;BME280;46340;53.148;8.204;2022-07-11T00:59:47;102207.94;;;12.90;100.00
50133;BME280;46340;53.148;8.204;2022-07-11T01:02:12;102210.72;;;12.90;100.00
50133;BME280;46340;53.148;8.204;2022-07-11T01:04:38;102207.94;;;12.90;100.00
50133;BME280;46340;53.148;8.204;2022-07-11T01:07:03;102202.06;;;12.91;100.00
50133;BME280;46340;53.148;8.204;2022-07-11T01:09:29;102202.88;;;12.92;100.00
50133;BME280;46340;53.148;8.204;2022-07-11T01:11:55;102204.84;;;12.91;100.00
50133;BME280;46340;53.148;8.204;2022-07-11T01:14:20;102207.28;;;12.93;100.00
50133;BME280;46340;53.148;8.204;2022-07-11T01:16:45;102198.31;;;12.96;100.00
50133;BME280;46340;53.148;8.204;2022-07-11T01:19:11;102202.06;;;12.91;100.00
50133;BME280;46340;53.148;8.204;2022-07-11T01:21:37;102202.56;;;12.93;100.00
50133;BME280;46340;53.148;8.204;2022-07-11T01:24:06;102197.81;;;12.94;100.00
50133;BME280;46340;53.148;8.204;2022-07-11T01:26:33;102198.66;;;12.94;100.00
50133;BME280;46340;53.148;8.204;2022-07-11T01:29:05;102204.19;;;12.94;100.00
50133;BME280;46340;53.148;8.204;2022-07-11T01:31:32;102206.97;;;12.94;100.00
50133;BME280;46340;53.148;8.204;2022-07-11T01:33:57;102205.81;;;12.95;100.00
50133;BME280;46340;53.148;8.204;2022-07-11T01:36:23;102206.66;;;12.96;100.00
50133;BME280;46340;53.148;8.204;2022-07-11T01:38:48;102205.00;;;12.95;100.00
50133;BME280;46340;53.148;8.204;2022-07-11T01:41:14;102201.91;;;12.96;100.00
50133;BME280;46340;53.148;8.204;2022-07-11T01:43:39;102196.38;;;12.96;100.00
50133;BME280;46340;53.148;8.204;2022-07-11T01:46:04;102193.91;;;12.95;100.00
50133;BME280;46340;53.148;8.204;2022-07-11T01:48:30;102203.03;;;12.95;100.00
50133;BME280;46340;53.148;8.204;2022-07-11T01:50:55;102198.31;;;12.96;100.00
50133;BME280;46340;53.148;8.204;2022-07-11T01:53:21;102191.63;;;12.97;100.00
50133;BME280;46340;53.148;8.204;2022-07-11T01:55:47;102191.63;;;12.97;100.00
50133;BME280;46340;53.148;8.204;2022-07-11T01:58:12;102199.94;;;12.97;100.00
50133;BME280;46340;53.148;8.204;2022-07-11T02:00:37;102185.59;;;12.95;100.00
50133;BME280;46340;53.148;8.204;2022-07-11T02:03:03;102192.44;;;12.97;100.00
50133;BME280;46340;53.148;8.204;2022-07-11T02:05:28;102201.09;;;12.96;100.00
50133;BME280;46340;53.148;8.204;2022-07-11T02:07:54;102201.59;;;12.98;100.00
50133;BME280;46340;53.148;8.204;2022-07-11T02:10:47;102191.63;;;12.97;100.00
50133;BME280;46340;53.148;8.204;2022-07-11T02:13:16;102198.31;;;12.96;100.00
50133;BME280;46340;53.148;8.204;2022-07-11T02:15:42;102195.56;;;12.96;100.00
50133;BME280;46340;53.148;8.204;2022-07-11T02:18:09;102203.88;;;12.96;100.00
50133;BME280;46340;53.148;8.204;2022-07-11T02:20:36;102204.19;;;12.94;100.00
50133;BME280;46340;53.148;8.204;2022-07-11T02:23:03;102192.28;;;12.94;100.00
50133;BME280;46340;53.148;8.204;2022-07-11T02:25:29;102195.88;;;12.94;100.00
50133;BME280;46340;53.148;8.204;2022-07-11T02:27:55;102187.41;;;12.91;100.00
50133;BME280;46340;53.148;8.204;2022-07-11T02:30:21;102190.81;;;12.96;100.00
50133;BME280;46340;53.148;8.204;2022-07-11T02:32:47;102184.13;;;12.97;100.00
50133;BME280;46340;53.148;8.204;2022-07-11T02:35:16;102183.16;;;12.93;100.00
50133;BME280;46340;53.148;8.204;2022-07-11T02:37:41;102191.47;;;12.93;100.00
50133;BME280;46340;53.148;8.204;2022-07-11T02:40:08;102192.28;;;12.94;100.00
50133;BME280;46340;53.148;8.204;2022-07-11T02:42:33;102185.59;;;12.95;100.00
50133;BME280;46340;53.148;8.204;2022-07-11T02:44:59;102190.16;;;13.00;100.00
50133;BME280;46340;53.148;8.204;2022-07-11T02:47:24;102193.28;;;12.98;100.00
50133;BME280;46340;53.148;8.204;2022-07-11T02:49:49;102198.97;;;12.93;100.00
50133;BME280;46340;53.148;8.204;2022-07-11T02:52:15;102188.38;;;12.86;100.00
50133;BME280;46340;53.148;8.204;2022-07-11T02:54:40;102195.06;;;12.85;100.00
50133;BME280;46340;53.148;8.204;2022-07-11T02:57:05;102196.06;;;12.81;100.00
50133;BME280;46340;53.148;8.204;2022-07-11T02:59:31;102193.13;;;12.77;100.00
50133;BME280;46340;53.148;8.204;2022-07-11T03:01:56;102198.97;;;12.75;100.00
50133;BME280;46340;53.148;8.204;2022-07-11T03:04:21;102210.06;;;12.75;100.00
50133;BME280;46340;53.148;8.204;2022-07-11T03:06:47;102193.28;;;12.72;100.00
50133;BME280;46340;53.148;8.204;2022-07-11T03:09:12;102193.09;;;12.68;100.00
50133;BME280;46340;53.148;8.204;2022-07-11T03:11:37;102197.66;;;12.64;100.00
50133;BME280;46340;53.148;8.204;2022-07-11T03:14:03;102191.94;;;12.60;100.00
50133;BME280;46340;53.148;8.204;2022-07-11T03:16:29;102193.91;;;12.60;100.00
50133;BME280;46340;53.148;8.204;2022-07-11T03:18:54;102192.28;;;12.59;100.00
50133;BME280;46340;53.148;8.204;2022-07-11T03:21:20;102197.00;;;12.58;100.00
50133;BME280;46340;53.148;8.204;2022-07-11T03:23:45;102198.97;;;12.58;100.00
50133;BME280;46340;53.148;8.204;2022-07-11T03:26:10;102196.84;;;12.55;100.00
50133;BME280;46340;53.148;8.204;2022-07-11T03:28:36;102204.00;;;12.56;100.00
50133;BME280;46340;53.148;8.204;2022-07-11T03:31:01;102197.00;;;12.58;100.00
50133;BME280;46340;53.148;8.204;2022-07-11T03:33:27;102198.31;;;12.61;100.00
50133;BME280;46340;53.148;8.204;2022-07-11T03:35:52;102200.44;;;12.64;100.00
50133;BME280;46340;53.148;8.204;2022-07-11T03:38:18;102200.09;;;12.66;100.00
50133;BME280;46340;53.148;8.204;2022-07-11T03:40:44;102207.47;;;12.70;100.00
50133;BME280;46340;53.148;8.204;2022-07-11T03:43:10;102206.78;;;12.73;100.00
50133;BME280;46340;53.148;8.204;2022-07-11T03:45:35;102206.78;;;12.73;100.00
50133;BME280;46340;53.148;8.204;2022-07-11T03:48:01;102208.91;;;12.76;100.00
50133;BME280;46340;53.148;8.204;2022-07-11T03:50:27;102209.22;;;12.75;100.00
50133;BME280;46340;53.148;8.204;2022-07-11T03:52:52;102211.84;;;12.80;100.00
50133;BME280;46340;53.148;8.204;2022-07-11T03:55:18;102204.69;;;12.79;100.00
50133;BME280;46340;53.148;8.204;2022-07-11T03:57:43;102211.03;;;12.79;100.00
50133;BME280;46340;53.148;8.204;2022-07-11T04:00:09;102205.00;;;12.86;100.00
50133;BME280;46340;53.148;8.204;2022-07-11T04:02:36;102215.63;;;12.84;100.00
50133;BME280;46340;53.148;8.204;2022-07-11T04:05:01;102206.81;;;12.82;100.00
50133;BME280;46340;53.148;8.204;2022-07-11T04:07:27;102211.34;;;12.87;100.00
50133;BME280;46340;53.148;8.204;2022-07-11T04:09:53;102206.47;;;12.84;100.00
50133;BME280;46340;53.148;8.204;2022-07-11T04:12:18;102207.78;;;12.86;100.00
50133;BME280;46340;53.148;8.204;2022-07-11T04:14:44;102210.72;;;12.90;100.00
50133;BME280;46340;53.148;8.204;2022-07-11T04:17:09;102207.94;;;12.90;100.00
50133;BME280;46340;53.148;8.204;2022-07-11T04:19:35;102211.03;;;12.88;100.00
50133;BME280;46340;53.148;8.204;2022-07-11T04:22:00;102215.63;;;12.84;100.00
50133;BME280;46340;53.148;8.204;2022-07-11T04:24:25;102208.91;;;12.85;100.00
50133;BME280;46340;53.148;8.204;2022-07-11T04:26:51;102208.09;;;12.93;100.00
50133;BME280;46340;53.148;8.204;2022-07-11T04:29:16;102209.75;;;12.94;100.00
50133;BME280;46340;53.148;8.204;2022-07-11T04:31:41;102203.19;;;12.99;100.00
50133;BME280;46340;53.148;8.204;2022-07-11T04:34:07;102204.34;;;12.98;100.00
50133;BME280;46340;53.148;8.204;2022-07-11T04:36:32;102208.91;;;12.94;100.00
50133;BME280;46340;53.148;8.204;2022-07-11T04:38:58;102206.13;;;12.94;100.00
50133;BME280;46340;53.148;8.204;2022-07-11T04:41:23;102210.56;;;12.95;100.00
50133;BME280;46340;53.148;8.204;2022-07-11T04:43:48;102207.75;;;13.12;100.00
50133;BME280;46340;53.148;8.204;2022-07-11T04:46:14;102218.19;;;13.15;100.00
50133;BME280;46340;53.148;8.204;2022-07-11T04:48:39;102223.28;;;13.13;100.00
50133;BME280;46340;53.148;8.204;2022-07-11T04:51:05;102219.31;;;13.23;100.00
50133;BME280;46340;53.148;8.204;2022-07-11T04:53:31;102209.22;;;13.19;100.00
50133;BME280;46340;53.148;8.204;2022-07-11T04:55:56;102227.34;;;13.16;100.00
50133;BME280;46340;53.148;8.204;2022-07-11T04:58:21;102219.97;;;13.20;100.00
50133;BME280;46340;53.148;8.204;2022-07-11T05:00:47;102228.28;;;13.20;100.00
50133;BME280;46340;53.148;8.204;2022-07-11T05:03:12;102225.88;;;13.27;100.00
50133;BME280;46340;53.148;8.204;2022-07-11T05:05:37;102223.44;;;13.34;100.00
50133;BME280;46340;53.148;8.204;2022-07-11T05:08:03;102225.03;;;13.35;100.00
50133;BME280;46340;53.148;8.204;2022-07-11T05:10:28;102228.31;;;13.38;100.00
50133;BME280;46340;53.148;8.204;2022-07-11T05:12:56;102222.09;;;13.41;100.00
50133;BME280;46340;53.148;8.204;2022-07-11T05:15:21;102224.56;;;13.33;100.00
50133;BME280;46340;53.148;8.204;2022-07-11T05:17:47;102228.78;;;13.31;100.00
50133;BME280;46340;53.148;8.204;2022-07-11T05:20:13;102227.00;;;13.26;100.00
50133;BME280;46340;53.148;8.204;2022-07-11T05:22:38;102221.78;;;13.25;100.00
50133;BME280;46340;53.148;8.204;2022-07-11T05:25:03;102222.13;;;13.32;100.00
50133;BME280;46340;53.148;8.204;2022-07-11T05:27:29;102234.34;;;13.48;100.00
50133;BME280;46340;53.148;8.204;2022-07-11T05:29:54;102233.31;;;13.53;100.00
50133;BME280;46340;53.148;8.204;2022-07-11T05:32:20;102237.06;;;13.66;100.00
50133;BME280;46340;53.148;8.204;2022-07-11T05:34:45;102239.66;;;13.71;100.00
50133;BME280;46340;53.148;8.204;2022-07-11T05:37:10;102236.72;;;13.76;100.00
50133;BME280;46340;53.148;8.204;2022-07-11T05:39:35;102235.72;;;13.72;100.00
50133;BME280;46340;53.148;8.204;2022-07-11T05:42:01;102242.44;;;13.71;100.00
50133;BME280;46340;53.148;8.204;2022-07-11T05:44:26;102245.81;;;13.85;100.00
50133;BME280;46340;53.148;8.204;2022-07-11T05:46:51;102235.69;;;13.89;100.00
50133;BME280;46340;53.148;8.204;2022-07-11T05:49:17;102238.94;;;13.91;100.00
50133;BME280;46340;53.148;8.204;2022-07-11T05:51:42;102237.91;;;13.96;100.00
50133;BME280;46340;53.148;8.204;2022-07-11T05:54:07;102236.38;;;14.16;100.00
50133;BME280;46340;53.148;8.204;2022-07-11T05:56:33;102236.94;;;14.30;100.00
50133;BME280;46340;53.148;8.204;2022-07-11T05:58:58;102233.44;;;14.42;100.00
50133;BME280;46340;53.148;8.204;2022-07-11T06:01:24;102228.94;;;14.29;100.00
50133;BME280;46340;53.148;8.204;2022-07-11T06:03:50;102238.41;;;14.58;100.00
50133;BME280;46340;53.148;8.204;2022-07-11T06:06:15;102233.75;;;14.71;100.00
50133;BME280;46340;53.148;8.204;2022-07-11T06:08:42;102236.00;;;14.77;100.00
50133;BME280;46340;53.148;8.204;2022-07-11T06:11:11;102241.72;;;14.51;100.00
50133;BME280;46340;53.148;8.204;2022-07-11T06:13:39;102246.25;;;14.35;100.00
50133;BME280;46340;53.148;8.204;2022-07-11T06:16:05;102241.06;;;13.95;100.00
50133;BME280;46340;53.148;8.204;2022-07-11T06:18:31;102221.72;;;13.60;100.00
50133;BME280;46340;53.148;8.204;2022-07-11T06:20:57;102250.91;;;13.75;100.00
50133;BME280;46340;53.148;8.204;2022-07-11T06:23:22;102247.47;;;13.78;100.00
50133;BME280;46340;53.148;8.204;2022-07-11T06:25:47;102245.97;;;13.89;100.00
50133;BME280;46340;53.148;8.204;2022-07-11T06:28:13;102250.91;;;14.13;100.00
50133;BME280;46340;53.148;8.204;2022-07-11T06:30:38;102254.69;;;14.47;100.00
50133;BME280;46340;53.148;8.204;2022-07-11T06:33:03;102249.59;;;14.49;100.00
50133;BME280;46340;53.148;8.204;2022-07-11T06:35:29;102245.38;;;14.43;100.00
50133;BME280;46340;53.148;8.204;2022-07-11T06:37:55;102250.53;;;14.53;100.00
50133;BME280;46340;53.148;8.204;2022-07-11T06:40:21;102242.41;;;14.78;100.00
50133;BME280;46340;53.148;8.204;2022-07-11T06:42:46;102245.44;;;15.06;100.00
50133;BME280;46340;53.148;8.204;2022-07-11T06:45:12;102244.91;;;15.13;100.00
50133;BME280;46340;53.148;8.204;2022-07-11T06:47:37;102240.31;;;15.29;100.00
50133;BME280;46340;53.148;8.204;2022-07-11T06:50:03;102237.47;;;15.50;100.00
50133;BME280;46340;53.148;8.204;2022-07-11T06:52:28;102231.44;;;15.94;100.00
50133;BME280;46340;53.148;8.204;2022-07-11T06:54:53;102218.78;;;16.09;100.00
50133;BME280;46340;53.148;8.204;2022-07-11T06:57:19;102228.44;;;15.99;100.00
50133;BME280;46340;53.148;8.204;2022-07-11T06:59:44;102219.25;;;15.98;100.00
50133;BME280;46340;53.148;8.204;2022-07-11T07:02:09;102223.22;;;16.22;100.00
50133;BME280;46340;53.148;8.204;2022-07-11T07:04:35;102221.69;;;16.12;100.00
50133;BME280;46340;53.148;8.204;2022-07-11T07:07:00;102217.53;;;16.06;100.00
50133;BME280;46340;53.148;8.204;2022-07-11T07:09:26;102221.34;;;16.14;100.00
50133;BME280;46340;53.148;8.204;2022-07-11T07:11:52;102215.31;;;16.00;100.00
50133;BME280;46340;53.148;8.204;2022-07-11T07:14:18;102220.69;;;15.59;100.00
50133;BME280;46340;53.148;8.204;2022-07-11T07:16:43;102222.72;;;15.37;100.00
50133;BME280;46340;53.148;8.204;2022-07-11T07:19:08;102229.06;;;15.26;100.00
50133;BME280;46340;53.148;8.204;2022-07-11T07:21:34;102238.28;;;15.17;100.00
50133;BME280;46340;53.148;8.204;2022-07-11T07:24:00;102233.22;;;14.98;100.00
50133;BME280;46340;53.148;8.204;2022-07-11T07:26:25;102243.06;;;14.75;100.00
50133;BME280;46340;53.148;8.204;2022-07-11T07:28:51;102249.56;;;14.79;100.00
50133;BME280;46340;53.148;8.204;2022-07-11T07:31:16;102246.44;;;14.59;100.00
50133;BME280;46340;53.148;8.204;2022-07-11T07:33:41;102244.31;;;14.56;100.00
50133;BME280;46340;53.148;8.204;2022-07-11T07:36:07;102249.16;;;14.68;100.00
50133;BME280;46340;53.148;8.204;2022-07-11T07:38:32;102245.31;;;14.81;100.00
50133;BME280;46340;53.148;8.204;2022-07-11T07:40:57;102241.50;;;14.86;100.00
50133;BME280;46340;53.148;8.204;2022-07-11T07:43:23;102249.78;;;14.95;100.00
50133;BME280;46340;53.148;8.204;2022-07-11T07:45:48;102250.19;;;14.84;100.00
50133;BME280;46340;53.148;8.204;2022-07-11T07:48:13;102247.88;;;14.65;100.00
50133;BME280;46340;53.148;8.204;2022-07-11T07:50:39;102255.41;;;14.65;100.00
50133;BME280;46340;53.148;8.204;2022-07-11T07:53:04;102256.22;;;14.57;100.00
50133;BME280;46340;53.148;8.204;2022-07-11T07:55:29;102261.66;;;14.53;100.00
50133;BME280;46340;53.148;8.204;2022-07-11T07:57:55;102269.91;;;14.41;100.00
50133;BME280;46340;53.148;8.204;2022-07-11T08:00:20;102265.75;;;14.56;100.00
50133;BME280;46340;53.148;8.204;2022-07-11T08:03:07;102270.00;;;14.53;100.00
50133;BME280;46340;53.148;8.204;2022-07-11T08:05:36;102266.06;;;14.54;100.00
50133;BME280;46340;53.148;8.204;2022-07-11T08:08:02;102271.41;;;14.89;100.00
50133;BME280;46340;53.148;8.204;2022-07-11T08:10:28;102261.25;;;14.93;100.00
50133;BME280;46340;53.148;8.204;2022-07-11T08:12:54;102270.53;;;14.76;100.00
50133;BME280;46340;53.148;8.204;2022-07-11T08:15:19;102273.06;;;14.90;100.00
50133;BME280;46340;53.148;8.204;2022-07-11T08:17:44;102279.03;;;14.80;100.00
50133;BME280;46340;53.148;8.204;2022-07-11T08:20:10;102280.09;;;15.09;100.00
50133;BME280;46340;53.148;8.204;2022-07-11T08:22:35;102280.31;;;15.58;100.00
50133;BME280;46340;53.148;8.204;2022-07-11T08:25:01;102276.25;;;16.01;100.00
50133;BME280;46340;53.148;8.204;2022-07-11T08:27:26;102270.94;;;16.58;100.00
50133;BME280;46340;53.148;8.204;2022-07-11T08:29:52;102263.50;;;16.37;100.00
50133;BME280;46340;53.148;8.204;2022-07-11T08:32:17;102255.03;;;16.33;100.00
50133;BME280;46340;53.148;8.204;2022-07-11T08:34:43;102255.25;;;16.41;100.00
50133;BME280;46340;53.148;8.204;2022-07-11T08:37:09;102259.31;;;16.31;100.00
50133;BME280;46340;53.148;8.204;2022-07-11T08:39:34;102263.38;;;16.58;100.00
50133;BME280;46340;53.148;8.204;2022-07-11T08:42:00;102263.56;;;16.90;100.00
50133;BME280;46340;53.148;8.204;2022-07-11T08:44:25;102265.84;;;17.00;100.00
50133;BME280;46340;53.148;8.204;2022-07-11T08:46:51;102269.03;;;16.74;100.00
50133;BME280;46340;53.148;8.204;2022-07-11T08:49:17;102260.69;;;16.62;100.00
50133;BME280;46340;53.148;8.204;2022-07-11T08:51:43;102252.88;;;16.67;100.00
50133;BME280;46340;53.148;8.204;2022-07-11T08:54:10;102252.16;;;16.95;100.00
50133;BME280;46340;53.148;8.204;2022-07-11T08:56:36;102256.19;;;17.54;100.00
50133;BME280;46340;53.148;8.204;2022-07-11T08:59:02;102252.59;;;17.54;100.00
50133;BME280;46340;53.148;8.204;2022-07-11T09:01:29;102245.91;;;18.02;100.00
50133;BME280;46340;53.148;8.204;2022-07-11T09:03:56;102241.13;;;18.03;100.00
50133;BME280;46340;53.148;8.204;2022-07-11T09:06:22;102247.81;;;17.54;100.00
50133;BME280;46340;53.148;8.204;2022-07-11T09:08:47;102249.00;;;17.69;100.00
50133;BME280;46340;53.148;8.204;2022-07-11T09:11:13;102249.56;;;17.75;100.00
50133;BME280;46340;53.148;8.204;2022-07-11T09:13:38;102248.41;;;17.76;100.00
50133;BME280;46340;53.148;8.204;2022-07-11T09:16:04;102243.56;;;18.20;100.00
50133;BME280;46340;53.148;8.204;2022-07-11T09:20:59;102236.44;;;17.91;100.00
50133;BME280;46340;53.148;8.204;2022-07-11T09:23:46;102240.56;;;18.13;100.00
50133;BME280;46340;53.148;8.204;2022-07-11T09:26:33;102240.38;;;18.38;100.00
50133;BME280;46340;53.148;8.204;2022-07-11T09:31:32;102251.91;;;19.07;100.00
50133;BME280;46340;53.148;8.204;2022-07-11T09:34:05;102255.88;;;19.06;100.00
50133;BME280;46340;53.148;8.204;2022-07-11T09:36:37;102248.59;;;19.02;100.00
50133;BME280;46340;53.148;8.204;2022-07-11T09:39:05;102237.44;;;19.25;100.00
50133;BME280;46340;53.148;8.204;2022-07-11T09:41:32;102252.41;;;18.93;100.00
50133;BME280;46340;53.148;8.204;2022-07-11T09:44:11;102250.78;;;18.57;100.00
50133;BME280;46340;53.148;8.204;2022-07-11T09:46:47;102233.75;;;17.95;100.00
50133;BME280;46340;53.148;8.204;2022-07-11T09:49:14;102237.13;;;18.20;100.00
50133;BME280;46340;53.148;8.204;2022-07-11T09:51:41;102241.66;;;18.09;100.00
50133;BME280;46340;53.148;8.204;2022-07-11T09:54:08;102246.94;;;17.66;100.00
50133;BME280;46340;53.148;8.204;2022-07-11T09:56:40;102249.16;;;17.44;100.00
50133;BME280;46340;53.148;8.204;2022-07-11T09:59:10;102243.28;;;18.10;100.00
50133;BME280;46340;53.148;8.204;2022-07-11T10:01:38;102247.09;;;18.88;100.00
50133;BME280;46340;53.148;8.204;2022-07-11T10:04:05;102246.53;;;19.61;100.00
50133;BME280;46340;53.148;8.204;2022-07-11T10:06:32;102244.94;;;18.82;100.00
50133;BME280;46340;53.148;8.204;2022-07-11T10:08:57;102245.13;;;18.53;100.00
50133;BME280;46340;53.148;8.204;2022-07-11T10:11:23;102256.03;;;18.42;100.00
50133;BME280;46340;53.148;8.204;2022-07-11T10:13:49;102243.41;;;19.23;100.00
50133;BME280;46340;53.148;8.204;2022-07-11T10:16:25;102244.78;;;19.52;100.00
50133;BME280;46340;53.148;8.204;2022-07-11T10:21:49;102239.41;;;19.86;100.00
50133;BME280;46340;53.148;8.204;2022-07-11T10:24:27;102249.09;;;19.50;100.00
50133;BME280;46340;53.148;8.204;2022-07-11T10:27:10;102244.50;;;19.81;100.00
50133;BME280;46340;53.148;8.204;2022-07-11T10:29:39;102246.47;;;20.26;100.00
50133;BME280;46340;53.148;8.204;2022-07-11T10:32:15;102241.91;;;19.72;100.00
50133;BME280;46340;53.148;8.204;2022-07-11T10:34:41;102249.34;;;19.41;100.00
50133;BME280;46340;53.148;8.204;2022-07-11T10:37:07;102251.91;;;19.07;100.00
50133;BME280;46340;53.148;8.204;2022-07-11T10:39:34;102258.84;;;18.27;100.00
50133;BME280;46340;53.148;8.204;2022-07-11T10:42:02;102264.19;;;17.84;100.00
50133;BME280;46340;53.148;8.204;2022-07-11T10:47:32;102279.16;;;16.66;100.00
50133;BME280;46340;53.148;8.204;2022-07-11T10:50:02;102288.44;;;16.09;100.00
50133;BME280;46340;53.148;8.204;2022-07-11T10:52:50;102298.16;;;15.78;100.00
50133;BME280;46340;53.148;8.204;2022-07-11T10:58:30;102293.75;;;15.89;100.00
50133;BME280;46340;53.148;8.204;2022-07-11T11:01:12;102293.66;;;15.98;100.00
50133;BME280;46340;53.148;8.204;2022-07-11T11:03:40;102293.09;;;16.29;100.00
50133;BME280;46340;53.148;8.204;2022-07-11T11:06:06;102290.19;;;16.01;100.00
50133;BME280;46340;53.148;8.204;2022-07-11T11:13:44;102298.56;;;16.38;100.00
50133;BME280;46340;53.148;8.204;2022-07-11T11:16:19;102298.91;;;16.12;100.00
50133;BME280;46340;53.148;8.204;2022-07-11T11:18:49;102305.47;;;15.83;100.00
50133;BME280;46340;53.148;8.204;2022-07-11T11:21:15;102310.03;;;15.66;100.00
50133;BME280;46340;53.148;8.204;2022-07-11T11:26:24;102298.81;;;16.58;100.00
50133;BME280;46340;53.148;8.204;2022-07-11T11:29:00;102297.94;;;16.82;100.00
50133;BME280;46340;53.148;8.204;2022-07-11T11:31:29;102295.75;;;16.75;100.00
50133;BME280;46340;53.148;8.204;2022-07-11T11:33:59;102297.34;;;17.01;100.00
50133;BME280;46340;53.148;8.204;2022-07-11T11:36:26;102287.28;;;16.71;100.00
50133;BME280;46340;53.148;8.204;2022-07-11T11:38:52;102288.13;;;16.47;100.00
50133;BME280;46340;53.148;8.204;2022-07-11T11:41:28;102296.91;;;16.74;100.00
50133;BME280;46340;53.148;8.204;2022-07-11T11:43:55;102292.38;;;16.69;100.00
50133;BME280;46340;53.148;8.204;2022-07-11T11:46:25;102291.25;;;16.58;100.00
50133;BME280;46340;53.148;8.204;2022-07-11T11:48:55;102290.69;;;16.52;100.00
50133;BME280;46340;53.148;8.204;2022-07-11T11:51:22;102286.22;;;16.76;100.00
50133;BME280;46340;53.148;8.204;2022-07-11T11:53:49;102292.19;;;17.15;100.00
50133;BME280;46340;53.148;8.204;2022-07-11T11:56:16;102291.50;;;17.06;100.00
50133;BME280;46340;53.148;8.204;2022-07-11T11:58:42;102292.13;;;16.99;100.00
50133;BME280;46340;53.148;8.204;2022-07-11T12:01:12;102295.19;;;16.94;100.00
50133;BME280;46340;53.148;8.204;2022-07-11T12:06:16;102289.50;;;17.47;100.00
50133;BME280;46340;53.148;8.204;2022-07-11T12:08:42;102282.41;;;18.26;100.00
50133;BME280;46340;53.148;8.204;2022-07-11T12:11:11;102283.00;;;19.64;100.00
50133;BME280;46340;53.148;8.204;2022-07-11T12:13:38;102278.88;;;20.77;100.00
50133;BME280;46340;53.148;8.204;2022-07-11T12:16:11;102278.44;;;21.06;100.00
50133;BME280;46340;53.148;8.204;2022-07-11T12:18:55;102274.25;;;20.35;100.00
50133;BME280;46340;53.148;8.204;2022-07-11T12:21:21;102278.38;;;20.18;100.00
50133;BME280;46340;53.148;8.204;2022-07-11T12:23:46;102270.19;;;20.33;100.00
50133;BME280;46340;53.148;8.204;2022-07-11T12:26:11;102265.06;;;22.08;100.00
50133;BME280;46340;53.148;8.204;2022-07-11T12:29:01;102268.75;;;24.49;100.00
50133;BME280;46340;53.148;8.204;2022-07-11T12:34:15;102264.94;;;23.12;100.00
50133;BME280;46340;53.148;8.204;2022-07-11T12:36:42;102261.03;;;22.53;100.00
50133;BME280;46340;53.148;8.204;2022-07-11T12:39:07;102268.25;;;22.54;100.00
50133;BME280;46340;53.148;8.204;2022-07-11T12:41:33;102266.63;;;21.57;100.00
50133;BME280;46340;53.148;8.204;2022-07-11T12:43:59;102257.50;;;22.12;100.00
50133;BME280;46340;53.148;8.204;2022-07-11T12:46:43;102260.19;;;21.97;100.00
50133;BME280;46340;53.148;8.204;2022-07-11T12:49:12;102270.09;;;21.81;100.00
50133;BME280;46340;53.148;8.204;2022-07-11T12:51:38;102268.13;;;21.47;100.00
50133;BME280;46340;53.148;8.204;2022-07-11T12:54:06;102266.81;;;20.73;100.00
50133;BME280;46340;53.148;8.204;2022-07-11T12:56:33;102273.28;;;20.77;100.00
50133;BME280;46340;53.148;8.204;2022-07-11T12:58:59;102274.06;;;20.78;100.00
50133;BME280;46340;53.148;8.204;2022-07-11T13:01:26;102265.22;;;21.06;100.00
50133;BME280;46340;53.148;8.204;2022-07-11T13:03:52;102258.19;;;21.23;100.00
50133;BME280;46340;53.148;8.204;2022-07-11T13:06:18;102267.75;;;21.90;100.00